Time,TemperatureF,DewpointF,PressureIn,WindDirection,WindDirectionDegrees,WindSpeedMPH,WindSpeedGustMPH,Humidity,HourlyPrecipIn,Conditions,Clouds,dailyrainin,SoftwareType,DateUTC
2013-04-20 00:13:00,50.0,46.0,29.70,WNW,302,7.0,9.0,85,0.03,,,0.72,weatherlink.com 1.10,2013-04-20 04:13:00,
2013-04-20 00:28:00,49.2,46.0,29.69,West,275,1.0,5.0,88,0.02,,,0.72,weatherlink.com 1.10,2013-04-20 04:28:00,
2013-04-20 00:43:00,48.9,46.0,29.70,WNW,301,1.0,2.0,91,0.03,,,0.73,weatherlink.com 1.10,2013-04-20 04:43:00,
2013-04-20 00:58:00,48.7,47.0,29.71,WSW,250,3.0,4.0,92,0.02,,,0.73,weatherlink.com 1.10,2013-04-20 04:58:00,
2013-04-20 01:13:00,49.0,47.0,29.71,West,267,0.0,5.0,93,0.01,,,0.73,weatherlink.com 1.10,2013-04-20 05:13:00,
2013-04-20 01:29:00,49.0,47.0,29.70,West,277,2.0,6.0,93,0.01,,,0.73,weatherlink.com 1.10,2013-04-20 05:29:00,
2013-04-20 01:44:00,49.0,47.0,29.69,NW,306,0.0,5.0,93,0.00,,,0.73,weatherlink.com 1.10,2013-04-20 05:44:00,
2013-04-20 01:59:00,48.8,47.0,29.68,WSW,256,1.0,3.0,93,0.01,,,0.74,weatherlink.com 1.10,2013-04-20 05:59:00,
2013-04-20 02:14:00,48.7,47.0,29.73,West,265,2.0,8.0,94,0.02,,,0.75,weatherlink.com 1.10,2013-04-20 06:14:00,
2013-04-20 02:29:00,48.5,47.0,29.73,West,265,3.0,9.0,94,0.02,,,0.75,weatherlink.com 1.10,2013-04-20 06:29:00,
2013-04-20 02:44:00,48.3,47.0,29.72,West,278,2.0,6.0,94,0.02,,,0.75,weatherlink.com 1.10,2013-04-20 06:44:00,
2013-04-20 02:59:00,48.1,47.0,29.72,WSW,253,2.0,5.0,94,0.01,,,0.75,weatherlink.com 1.10,2013-04-20 06:59:00,
2013-04-20 03:14:00,48.0,46.0,29.72,WSW,250,2.0,3.0,94,0.00,,,0.75,weatherlink.com 1.10,2013-04-20 07:14:00,
2013-04-20 03:29:00,47.8,46.0,29.72,WSW,257,1.0,6.0,94,0.00,,,0.75,weatherlink.com 1.10,2013-04-20 07:29:00,
2013-04-20 03:44:00,47.7,46.0,29.73,West,265,1.0,6.0,94,0.00,,,0.75,weatherlink.com 1.10,2013-04-20 07:44:00,
2013-04-20 03:59:00,47.5,46.0,29.75,WSW,240,3.0,4.0,93,0.00,,,0.75,weatherlink.com 1.10,2013-04-20 07:59:00,
2013-04-20 04:14:00,47.2,45.0,29.75,WSW,253,2.0,5.0,93,0.00,,,0.75,weatherlink.com 1.10,2013-04-20 08:14:00,
2013-04-20 04:29:00,46.9,45.0,29.76,WNW,284,5.0,7.0,92,0.00,,,0.75,weatherlink.com 1.10,2013-04-20 08:29:00,
2013-04-20 04:44:00,46.5,44.0,29.77,West,268,3.0,9.0,91,0.01,,,0.76,weatherlink.com 1.10,2013-04-20 08:44:00,
2013-04-20 04:59:00,46.3,44.0,29.79,WSW,254,2.0,5.0,91,0.01,,,0.76,weatherlink.com 1.10,2013-04-20 08:59:00,
2013-04-20 05:14:00,46.1,44.0,29.80,West,262,2.0,6.0,91,0.01,,,0.76,weatherlink.com 1.10,2013-04-20 09:14:00,
2013-04-20 05:29:00,46.2,43.0,29.81,WSW,254,4.0,12.0,89,0.01,,,0.76,weatherlink.com 1.10,2013-04-20 09:29:00,
2013-04-20 05:44:00,46.4,40.0,29.81,West,279,10.0,19.0,77,0.00,,,0.76,weatherlink.com 1.10,2013-04-20 09:44:00,
2013-04-20 05:59:00,46.1,39.0,29.82,West,261,4.0,11.0,75,0.00,,,0.76,weatherlink.com 1.10,2013-04-20 09:59:00,
2013-04-20 06:14:00,45.8,37.0,29.83,WSW,252,4.0,13.0,72,0.00,,,0.76,weatherlink.com 1.10,2013-04-20 10:14:00,
2013-04-20 06:29:00,45.5,37.0,29.84,WSW,252,4.0,9.0,73,0.00,,,0.00,weatherlink.com 1.10,2013-04-20 10:29:00,
2013-04-20 06:44:00,45.2,36.0,29.85,West,261,6.0,10.0,71,0.00,,,0.00,weatherlink.com 1.10,2013-04-20 10:44:00,
2013-04-20 06:59:00,45.2,37.0,29.85,West,260,2.0,8.0,74,0.00,,,0.00,weatherlink.com 1.10,2013-04-20 10:59:00,
2013-04-20 07:14:00,45.0,36.0,29.86,West,269,5.0,9.0,72,0.00,,,0.00,weatherlink.com 1.10,2013-04-20 11:14:00,
2013-04-20 07:29:00,45.2,35.0,29.87,West,263,4.0,16.0,67,0.00,,,0.00,weatherlink.com 1.10,2013-04-20 11:29:00,
2013-04-20 07:44:00,45.3,36.0,29.87,West,261,6.0,16.0,69,0.00,,,0.00,weatherlink.com 1.10,2013-04-20 11:44:00,
2013-04-20 07:59:00,45.8,35.0,29.88,WNW,285,4.0,18.0,66,0.00,,,0.00,weatherlink.com 1.10,2013-04-20 11:59:00,
2013-04-20 08:14:00,45.9,34.0,29.88,West,280,8.0,16.0,64,0.00,,,0.00,weatherlink.com 1.10,2013-04-20 12:14:00,
2013-04-20 08:29:00,45.8,33.0,29.89,West,263,7.0,16.0,62,0.00,,,0.00,weatherlink.com 1.10,2013-04-20 12:29:00,
2013-04-20 08:44:00,46.0,33.0,29.89,West,272,8.0,14.0,61,0.00,,,0.00,weatherlink.com 1.10,2013-04-20 12:44:00,
2013-04-20 08:59:00,46.3,33.0,29.88,WNW,285,3.0,12.0,60,0.00,,,0.00,weatherlink.com 1.10,2013-04-20 12:59:00,
2013-04-20 09:14:00,46.5,33.0,29.89,West,278,4.0,17.0,60,0.00,,,0.00,weatherlink.com 1.10,2013-04-20 13:14:00,
2013-04-20 09:29:00,46.4,32.0,29.90,WNW,291,8.0,15.0,57,0.00,,,0.00,weatherlink.com 1.10,2013-04-20 13:29:00,
2013-04-20 09:45:00,45.8,30.0,29.91,WSW,255,1.0,18.0,54,0.00,,,0.00,weatherlink.com 1.10,2013-04-20 13:45:00,
2013-04-20 10:00:00,45.7,29.0,29.93,West,275,7.0,16.0,53,0.00,,,0.00,weatherlink.com 1.10,2013-04-20 14:00:00,
2013-04-20 10:15:00,46.1,31.0,29.94,West,262,4.0,12.0,57,0.00,,,0.00,weatherlink.com 1.10,2013-04-20 14:15:00,
2013-04-20 10:30:00,46.2,33.0,29.95,WNW,282,5.0,12.0,60,0.00,,,0.00,weatherlink.com 1.10,2013-04-20 14:30:00,
2013-04-20 10:45:00,46.9,33.0,29.95,SW,227,4.0,12.0,59,0.00,,,0.00,weatherlink.com 1.10,2013-04-20 14:45:00,
2013-04-20 11:00:00,48.0,33.0,29.96,WSW,257,5.0,14.0,57,0.00,,,0.00,weatherlink.com 1.10,2013-04-20 15:00:00,
2013-04-20 11:15:00,48.6,33.0,29.96,West,260,6.0,15.0,55,0.00,,,0.00,weatherlink.com 1.10,2013-04-20 15:15:00,
2013-04-20 11:30:00,50.0,32.0,29.96,West,274,6.0,19.0,50,0.00,,,0.00,weatherlink.com 1.10,2013-04-20 15:30:00,
2013-04-20 11:45:00,50.1,32.0,29.97,West,265,9.0,15.0,50,0.00,,,0.00,weatherlink.com 1.10,2013-04-20 15:45:00,
2013-04-20 12:00:00,51.7,33.0,29.96,WSW,252,11.0,16.0,50,0.00,,,0.00,weatherlink.com 1.10,2013-04-20 16:00:00,
2013-04-20 12:15:00,52.5,33.0,29.96,West,271,10.0,24.0,47,0.00,,,0.00,weatherlink.com 1.10,2013-04-20 16:15:00,
2013-04-20 12:30:00,53.0,33.0,29.96,WSW,254,10.0,15.0,46,0.00,,,0.00,weatherlink.com 1.10,2013-04-20 16:30:00,
2013-04-20 12:45:00,53.4,32.0,29.96,West,271,7.0,19.0,45,0.00,,,0.00,weatherlink.com 1.10,2013-04-20 16:45:00,
2013-04-20 13:00:00,53.2,35.0,29.96,NNW,331,4.0,18.0,51,0.00,,,0.00,weatherlink.com 1.10,2013-04-20 17:00:00,
2013-04-20 13:15:00,53.8,31.0,29.96,NNW,329,9.0,14.0,42,0.00,,,0.00,weatherlink.com 1.10,2013-04-20 17:15:00,
2013-04-20 13:30:00,53.8,32.0,29.96,WNW,286,6.0,21.0,44,0.00,,,0.00,weatherlink.com 1.10,2013-04-20 17:30:00,
2013-04-20 13:45:00,53.8,29.0,29.96,SW,234,7.0,21.0,38,0.00,,,0.00,weatherlink.com 1.10,2013-04-20 17:45:00,
2013-04-20 14:00:00,56.6,35.0,29.96,WSW,245,10.0,22.0,45,0.00,,,0.00,weatherlink.com 1.10,2013-04-20 18:00:00,
2013-04-20 14:15:00,56.2,29.0,29.96,WSW,237,6.0,18.0,36,0.00,,,0.00,weatherlink.com 1.10,2013-04-20 18:15:00,
2013-04-20 14:30:00,57.3,31.0,29.96,West,262,8.0,18.0,37,0.00,,,0.00,weatherlink.com 1.10,2013-04-20 18:30:00,
2013-04-20 14:45:00,56.8,29.0,29.96,West,267,5.0,17.0,35,0.00,,,0.00,weatherlink.com 1.10,2013-04-20 18:45:00,
2013-04-20 15:00:00,54.4,32.0,29.97,SW,234,9.0,15.0,42,0.00,,,0.00,weatherlink.com 1.10,2013-04-20 19:00:00,
2013-04-20 15:15:00,55.3,31.0,29.97,West,279,9.0,20.0,39,0.00,,,0.00,weatherlink.com 1.10,2013-04-20 19:15:00,
2013-04-20 15:30:00,56.7,31.0,29.97,WSW,251,11.0,16.0,38,0.00,,,0.00,weatherlink.com 1.10,2013-04-20 19:30:00,
2013-04-20 15:45:00,57.4,30.0,29.98,WNW,291,8.0,19.0,36,0.00,,,0.00,weatherlink.com 1.10,2013-04-20 19:45:00,
2013-04-20 16:00:00,56.8,28.0,29.98,WNW,290,5.0,19.0,33,0.00,,,0.00,weatherlink.com 1.10,2013-04-20 20:00:00,
2013-04-20 16:15:00,55.2,27.0,29.99,WSW,258,9.0,19.0,34,0.00,,,0.00,weatherlink.com 1.10,2013-04-20 20:15:00,
2013-04-20 16:30:00,55.4,29.0,30.00,WNW,287,10.0,19.0,37,0.00,,,0.00,weatherlink.com 1.10,2013-04-20 20:30:00,
2013-04-20 16:45:00,56.0,31.0,30.01,WNW,285,12.0,22.0,38,0.00,,,0.00,weatherlink.com 1.10,2013-04-20 20:45:00,
2013-04-20 17:00:00,56.1,28.0,30.02,West,261,9.0,18.0,34,0.00,,,0.00,weatherlink.com 1.10,2013-04-20 21:00:00,
2013-04-20 17:15:00,53.8,27.0,30.02,SW,229,6.0,16.0,35,0.00,,,0.00,weatherlink.com 1.10,2013-04-20 21:15:00,
2013-04-20 17:31:00,53.7,29.0,30.03,SW,235,6.0,16.0,39,0.00,,,0.00,weatherlink.com 1.10,2013-04-20 21:31:00,
2013-04-20 17:46:00,53.1,29.0,30.04,WSW,257,4.0,13.0,39,0.00,,,0.00,weatherlink.com 1.10,2013-04-20 21:46:00,
2013-04-20 18:01:00,52.8,28.0,30.05,West,266,3.0,14.0,38,0.00,,,0.00,weatherlink.com 1.10,2013-04-20 22:01:00,
2013-04-20 18:16:00,53.0,27.0,30.06,WSW,251,8.0,19.0,37,0.00,,,0.00,weatherlink.com 1.10,2013-04-20 22:16:00,
2013-04-20 18:31:00,52.6,26.0,30.07,WNW,294,4.0,20.0,36,0.00,,,0.00,weatherlink.com 1.10,2013-04-20 22:31:00,
2013-04-20 18:46:00,52.0,28.0,30.07,West,261,10.0,15.0,39,0.00,,,0.00,weatherlink.com 1.10,2013-04-20 22:46:00,
2013-04-20 19:01:00,52.0,27.0,30.08,WNW,284,5.0,16.0,38,0.00,,,0.00,weatherlink.com 1.10,2013-04-20 23:01:00,
2013-04-20 19:16:00,51.2,26.0,30.09,West,277,9.0,14.0,38,0.00,,,0.00,weatherlink.com 1.10,2013-04-20 23:16:00,
2013-04-20 19:31:00,50.5,26.0,30.11,WNW,295,5.0,15.0,38,0.00,,,0.00,weatherlink.com 1.10,2013-04-20 23:31:00,
2013-04-20 19:46:00,49.7,25.0,30.12,West,261,9.0,14.0,39,0.00,,,0.00,weatherlink.com 1.10,2013-04-20 23:46:00,
2013-04-20 20:01:00,49.0,26.0,30.13,WNW,302,2.0,10.0,41,0.00,,,0.00,weatherlink.com 1.10,2013-04-21 00:01:00,
2013-04-20 20:16:00,48.6,26.0,30.14,West,260,5.0,11.0,42,0.00,,,0.00,weatherlink.com 1.10,2013-04-21 00:16:00,
2013-04-20 20:31:00,48.1,26.0,30.16,West,268,4.0,13.0,42,0.00,,,0.00,weatherlink.com 1.10,2013-04-21 00:31:00,
2013-04-20 20:46:00,47.6,26.0,30.17,WSW,254,7.0,13.0,43,0.00,,,0.00,weatherlink.com 1.10,2013-04-21 00:46:00,
2013-04-20 21:01:00,47.0,26.0,30.18,West,281,10.0,11.0,44,0.00,,,0.00,weatherlink.com 1.10,2013-04-21 01:01:00,
2013-04-20 21:16:00,47.1,26.0,30.20,WSW,243,6.0,9.0,44,0.00,,,0.00,weatherlink.com 1.10,2013-04-21 01:16:00,
2013-04-20 21:31:00,47.2,26.0,30.21,WSW,250,10.0,13.0,44,0.00,,,0.00,weatherlink.com 1.10,2013-04-21 01:31:00,
2013-04-20 21:46:00,46.9,26.0,30.23,West,264,4.0,13.0,45,0.00,,,0.00,weatherlink.com 1.10,2013-04-21 01:46:00,
2013-04-20 22:01:00,46.4,26.0,30.24,NNW,327,4.0,7.0,46,0.00,,,0.00,weatherlink.com 1.10,2013-04-21 02:01:00,
2013-04-20 22:16:00,45.7,26.0,30.25,WSW,245,2.0,11.0,46,0.00,,,0.00,weatherlink.com 1.10,2013-04-21 02:16:00,
2013-04-20 22:31:00,45.3,25.0,30.25,West,273,0.0,14.0,46,0.00,,,0.00,weatherlink.com 1.10,2013-04-21 02:31:00,
2013-04-20 22:46:00,44.7,25.0,30.26,WSW,257,0.0,14.0,47,0.00,,,0.00,weatherlink.com 1.10,2013-04-21 02:46:00,
2013-04-20 23:01:00,43.9,23.0,30.27,NW,319,2.0,12.0,44,0.00,,,0.00,weatherlink.com 1.10,2013-04-21 03:01:00,
2013-04-20 23:17:00,43.0,22.0,30.29,NNW,329,6.0,10.0,44,0.00,,,0.00,weatherlink.com 1.10,2013-04-21 03:17:00,
2013-04-20 23:32:00,42.3,22.0,30.30,NNW,327,8.0,12.0,44,0.00,,,0.00,weatherlink.com 1.10,2013-04-21 03:32:00,
2013-04-20 23:47:00,41.5,21.0,30.30,NNW,331,2.0,11.0,44,0.00,,,0.00,weatherlink.com 1.10,2013-04-21 03:47:00,